sensor_id;sensor_type;location;lat;lon;timestamp;P1;durP1;ratioP1;P2;durP2;ratioP2
18322;SDS011;9287;49.456;11.064;2023-08-31T00:02:27;2.03;;;1.70;;
18322;SDS011;9287;49.456;11.064;2023-08-31T00:04:56;2.50;;;2.30;;
18322;SDS011;9287;49.456;11.064;2023-08-31T00:07:27;2.23;;;1.83;;
18322;SDS011;9287;49.456;11.064;2023-08-31T00:09:55;3.00;;;1.77;;
18322;SDS011;9287;49.456;11.064;2023-08-31T00:12:22;2.60;;;1.73;;
18322;SDS011;9287;49.456;11.064;2023-08-31T00:14:50;1.80;;;1.70;;
18322;SDS011;9287;49.456;11.064;2023-08-31T00:17:21;3.07;;;1.67;;
18322;SDS011;9287;49.456;11.064;2023-08-31T00:19:49;2.60;;;1.83;;
18322;SDS011;9287;49.456;11.064;2023-08-31T00:22:18;2.43;;;1.70;;
18322;SDS011;9287;49.456;11.064;2023-08-31T00:24:46;1.80;;;1.70;;
18322;SDS011;9287;49.456;11.064;2023-08-31T00:27:14;2.43;;;2.20;;
18322;SDS011;9287;49.456;11.064;2023-08-31T00:29:43;2.40;;;1.63;;
18322;SDS011;9287;49.456;11.064;2023-08-31T00:32:16;1.83;;;1.73;;
18322;SDS011;9287;49.456;11.064;2023-08-31T00:34:44;1.70;;;1.60;;
18322;SDS011;9287;49.456;11.064;2023-08-31T00:37:12;2.87;;;1.50;;
18322;SDS011;9287;49.456;11.064;2023-08-31T00:39:42;2.50;;;1.73;;
18322;SDS011;9287;49.456;11.064;2023-08-31T00:42:10;2.03;;;1.60;;
18322;SDS011;9287;49.456;11.064;2023-08-31T00:44:37;1.83;;;1.73;;
18322;SDS011;9287;49.456;11.064;2023-08-31T00:47:05;2.20;;;1.93;;
18322;SDS011;9287;49.456;11.064;2023-08-31T00:49:34;2.07;;;1.87;;
18322;SDS011;9287;49.456;11.064;2023-08-31T00:52:02;3.40;;;1.80;;
18322;SDS011;9287;49.456;11.064;2023-08-31T00:54:30;4.67;;;2.00;;
18322;SDS011;9287;49.456;11.064;2023-08-31T00:57:00;2.37;;;2.17;;
18322;SDS011;9287;49.456;11.064;2023-08-31T00:59:28;2.23;;;2.03;;
18322;SDS011;9287;49.456;11.064;2023-08-31T01:01:57;2.50;;;1.70;;
18322;SDS011;9287;49.456;11.064;2023-08-31T01:04:32;1.70;;;1.60;;
18322;SDS011;9287;49.456;11.064;2023-08-31T01:07:09;3.03;;;1.73;;
18322;SDS011;9287;49.456;11.064;2023-08-31T01:09:46;2.07;;;1.80;;
18322;SDS011;9287;49.456;11.064;2023-08-31T01:12:25;2.27;;;2.07;;
18322;SDS011;9287;49.456;11.064;2023-08-31T01:15:02;2.03;;;1.43;;
18322;SDS011;9287;49.456;11.064;2023-08-31T01:17:35;3.50;;;1.80;;
18322;SDS011;9287;49.456;11.064;2023-08-31T01:20:09;1.90;;;1.70;;
18322;SDS011;9287;49.456;11.064;2023-08-31T01:22:39;1.60;;;1.50;;
18322;SDS011;9287;49.456;11.064;2023-08-31T01:25:16;1.90;;;1.40;;
18322;SDS011;9287;49.456;11.064;2023-08-31T01:27:44;1.73;;;1.20;;
18322;SDS011;9287;49.456;11.064;2023-08-31T01:30:12;1.73;;;1.63;;
18322;SDS011;9287;49.456;11.064;2023-08-31T01:32:42;2.73;;;2.17;;
18322;SDS011;9287;49.456;11.064;2023-08-31T01:35:11;1.67;;;1.57;;
18322;SDS011;9287;49.456;11.064;2023-08-31T01:37:43;1.50;;;1.40;;
18322;SDS011;9287;49.456;11.064;2023-08-31T01:40:16;1.50;;;1.37;;
18322;SDS011;9287;49.456;11.064;2023-08-31T01:42:47;1.80;;;1.70;;
18322;SDS011;9287;49.456;11.064;2023-08-31T01:45:17;2.50;;;2.30;;
18322;SDS011;9287;49.456;11.064;2023-08-31T01:47:47;2.37;;;1.70;;
18322;SDS011;9287;49.456;11.064;2023-08-31T01:50:15;2.53;;;1.70;;
18322;SDS011;9287;49.456;11.064;2023-08-31T01:52:43;1.60;;;1.50;;
18322;SDS011;9287;49.456;11.064;2023-08-31T01:55:11;1.67;;;1.57;;
18322;SDS011;9287;49.456;11.064;2023-08-31T01:57:43;2.47;;;1.90;;
18322;SDS011;9287;49.456;11.064;2023-08-31T02:00:11;2.10;;;1.90;;
18322;SDS011;9287;49.456;11.064;2023-08-31T02:02:40;1.70;;;1.60;;
18322;SDS011;9287;49.456;11.064;2023-08-31T02:05:08;1.70;;;1.60;;
18322;SDS011;9287;49.456;11.064;2023-08-31T02:07:37;1.70;;;1.60;;
18322;SDS011;9287;49.456;11.064;2023-08-31T02:10:06;1.83;;;1.73;;
18322;SDS011;9287;49.456;11.064;2023-08-31T02:12:34;2.40;;;1.70;;
18322;SDS011;9287;49.456;11.064;2023-08-31T02:15:05;1.73;;;1.63;;
18322;SDS011;9287;49.456;11.064;2023-08-31T02:17:33;1.73;;;1.63;;
18322;SDS011;9287;49.456;11.064;2023-08-31T02:20:02;1.70;;;1.60;;
18322;SDS011;9287;49.456;11.064;2023-08-31T02:22:33;1.70;;;1.60;;
18322;SDS011;9287;49.456;11.064;2023-08-31T02:25:01;1.30;;;1.20;;
18322;SDS011;9287;49.456;11.064;2023-08-31T02:27:30;3.13;;;1.53;;
18322;SDS011;9287;49.456;11.064;2023-08-31T02:29:57;2.13;;;1.63;;
18322;SDS011;9287;49.456;11.064;2023-08-31T02:32:27;1.77;;;1.50;;
18322;SDS011;9287;49.456;11.064;2023-08-31T02:34:54;2.33;;;1.80;;
18322;SDS011;9287;49.456;11.064;2023-08-31T02:37:22;2.03;;;1.60;;
18322;SDS011;9287;49.456;11.064;2023-08-31T02:39:50;1.97;;;1.87;;
18322;SDS011;9287;49.456;11.064;2023-08-31T02:42:18;3.53;;;1.60;;
18322;SDS011;9287;49.456;11.064;2023-08-31T02:44:46;3.23;;;1.77;;
18322;SDS011;9287;49.456;11.064;2023-08-31T02:47:14;3.20;;;1.60;;
18322;SDS011;9287;49.456;11.064;2023-08-31T02:49:43;3.87;;;2.07;;
18322;SDS011;9287;49.456;11.064;2023-08-31T02:52:11;1.83;;;1.70;;
18322;SDS011;9287;49.456;11.064;2023-08-31T02:54:39;2.47;;;2.27;;
18322;SDS011;9287;49.456;11.064;2023-08-31T02:57:07;2.30;;;2.10;;
18322;SDS011;9287;49.456;11.064;2023-08-31T02:59:35;1.70;;;1.60;;
18322;SDS011;9287;49.456;11.064;2023-08-31T03:02:03;1.97;;;1.87;;
18322;SDS011;9287;49.456;11.064;2023-08-31T03:04:32;2.23;;;2.03;;
18322;SDS011;9287;49.456;11.064;2023-08-31T03:07:01;2.43;;;1.87;;
18322;SDS011;9287;49.456;11.064;2023-08-31T03:09:31;2.40;;;1.77;;
18322;SDS011;9287;49.456;11.064;2023-08-31T03:11:58;2.07;;;1.90;;
18322;SDS011;9287;49.456;11.064;2023-08-31T03:14:26;2.13;;;1.87;;
18322;SDS011;9287;49.456;11.064;2023-08-31T03:16:53;2.23;;;2.03;;
18322;SDS011;9287;49.456;11.064;2023-08-31T03:19:21;3.40;;;1.63;;
18322;SDS011;9287;49.456;11.064;2023-08-31T03:21:49;4.80;;;2.20;;
18322;SDS011;9287;49.456;11.064;2023-08-31T03:24:18;3.63;;;2.10;;
18322;SDS011;9287;49.456;11.064;2023-08-31T03:26:46;3.07;;;2.03;;
18322;SDS011;9287;49.456;11.064;2023-08-31T03:29:14;2.10;;;1.90;;
18322;SDS011;9287;49.456;11.064;2023-08-31T03:31:42;3.13;;;2.10;;
18322;SDS011;9287;49.456;11.064;2023-08-31T03:34:09;2.30;;;2.13;;
18322;SDS011;9287;49.456;11.064;2023-08-31T03:36:37;2.73;;;2.53;;
18322;SDS011;9287;49.456;11.064;2023-08-31T03:39:05;2.47;;;2.27;;
18322;SDS011;9287;49.456;11.064;2023-08-31T03:41:34;2.20;;;2.10;;
18322;SDS011;9287;49.456;11.064;2023-08-31T03:44:02;2.37;;;2.17;;
18322;SDS011;9287;49.456;11.064;2023-08-31T03:46:30;2.30;;;2.20;;
18322;SDS011;9287;49.456;11.064;2023-08-31T03:48:58;2.53;;;2.17;;
18322;SDS011;9287;49.456;11.064;2023-08-31T03:51:26;2.47;;;2.27;;
18322;SDS011;9287;49.456;11.064;2023-08-31T03:53:54;2.27;;;2.17;;
18322;SDS011;9287;49.456;11.064;2023-08-31T03:56:23;3.27;;;2.83;;
18322;SDS011;9287;49.456;11.064;2023-08-31T03:58:52;2.40;;;2.20;;
18322;SDS011;9287;49.456;11.064;2023-08-31T04:01:20;3.10;;;2.90;;
18322;SDS011;9287;49.456;11.064;2023-08-31T04:03:48;2.57;;;2.37;;
18322;SDS011;9287;49.456;11.064;2023-08-31T04:06:16;2.73;;;2.60;;
18322;SDS011;9287;49.456;11.064;2023-08-31T04:08:45;3.30;;;2.93;;
18322;SDS011;9287;49.456;11.064;2023-08-31T04:11:14;3.33;;;3.00;;
18322;SDS011;9287;49.456;11.064;2023-08-31T04:13:48;3.57;;;3.23;;
18322;SDS011;9287;49.456;11.064;2023-08-31T04:16:20;3.27;;;2.93;;
18322;SDS011;9287;49.456;11.064;2023-08-31T04:18:52;5.80;;;3.20;;
18322;SDS011;9287;49.456;11.064;2023-08-31T04:21:25;4.33;;;3.07;;
18322;SDS011;9287;49.456;11.064;2023-08-31T04:23:58;4.33;;;3.07;;
18322;SDS011;9287;49.456;11.064;2023-08-31T04:26:27;3.60;;;2.77;;
18322;SDS011;9287;49.456;11.064;2023-08-31T04:28:55;3.07;;;2.87;;
18322;SDS011;9287;49.456;11.064;2023-08-31T04:31:25;4.93;;;3.40;;
18322;SDS011;9287;49.456;11.064;2023-08-31T04:33:53;3.33;;;3.00;;
18322;SDS011;9287;49.456;11.064;2023-08-31T04:36:21;3.17;;;2.97;;
18322;SDS011;9287;49.456;11.064;2023-08-31T04:38:49;4.03;;;3.27;;
18322;SDS011;9287;49.456;11.064;2023-08-31T04:41:18;5.50;;;3.40;;
18322;SDS011;9287;49.456;11.064;2023-08-31T04:43:49;5.53;;;3.57;;
18322;SDS011;9287;49.456;11.064;2023-08-31T04:46:18;4.03;;;3.57;;
18322;SDS011;9287;49.456;11.064;2023-08-31T04:48:47;4.77;;;4.00;;
18322;SDS011;9287;49.456;11.064;2023-08-31T04:51:34;4.83;;;4.33;;
18322;SDS011;9287;49.456;11.064;2023-08-31T04:54:04;4.70;;;4.30;;
18322;SDS011;9287;49.456;11.064;2023-08-31T04:56:41;5.93;;;5.43;;
18322;SDS011;9287;49.456;11.064;2023-08-31T04:59:09;8.87;;;5.80;;
18322;SDS011;9287;49.456;11.064;2023-08-31T05:01:36;5.90;;;5.43;;
18322;SDS011;9287;49.456;11.064;2023-08-31T05:04:06;6.90;;;6.30;;
18322;SDS011;9287;49.456;11.064;2023-08-31T05:06:34;6.37;;;5.77;;
18322;SDS011;9287;49.456;11.064;2023-08-31T05:09:05;7.67;;;6.87;;
18322;SDS011;9287;49.456;11.064;2023-08-31T05:11:36;6.80;;;5.70;;
18322;SDS011;9287;49.456;11.064;2023-08-31T05:14:08;6.60;;;5.90;;
18322;SDS011;9287;49.456;11.064;2023-08-31T05:16:38;7.17;;;6.53;;
18322;SDS011;9287;49.456;11.064;2023-08-31T05:19:09;6.40;;;5.80;;
18322;SDS011;9287;49.456;11.064;2023-08-31T05:21:41;9.03;;;6.00;;
18322;SDS011;9287;49.456;11.064;2023-08-31T05:24:15;9.43;;;7.50;;
18322;SDS011;9287;49.456;11.064;2023-08-31T05:27:04;7.43;;;6.63;;
18322;SDS011;9287;49.456;11.064;2023-08-31T05:29:33;7.67;;;6.93;;
18322;SDS011;9287;49.456;11.064;2023-08-31T05:32:02;6.13;;;5.50;;
18322;SDS011;9287;49.456;11.064;2023-08-31T05:34:31;7.00;;;5.97;;
18322;SDS011;9287;49.456;11.064;2023-08-31T05:37:04;6.60;;;5.97;;
18322;SDS011;9287;49.456;11.064;2023-08-31T05:39:32;7.13;;;6.30;;
18322;SDS011;9287;49.456;11.064;2023-08-31T05:42:00;7.07;;;6.27;;
18322;SDS011;9287;49.456;11.064;2023-08-31T05:44:29;6.53;;;5.93;;
18322;SDS011;9287;49.456;11.064;2023-08-31T05:46:57;7.00;;;6.27;;
18322;SDS011;9287;49.456;11.064;2023-08-31T05:49:26;8.93;;;8.03;;
18322;SDS011;9287;49.456;11.064;2023-08-31T05:51:56;6.97;;;6.30;;
18322;SDS011;9287;49.456;11.064;2023-08-31T05:54:24;11.07;;;7.13;;
18322;SDS011;9287;49.456;11.064;2023-08-31T05:56:52;8.20;;;7.53;;
18322;SDS011;9287;49.456;11.064;2023-08-31T05:59:20;9.07;;;8.03;;
18322;SDS011;9287;49.456;11.064;2023-08-31T06:01:48;7.57;;;6.70;;
18322;SDS011;9287;49.456;11.064;2023-08-31T06:04:19;6.83;;;6.17;;
18322;SDS011;9287;49.456;11.064;2023-08-31T06:06:47;9.23;;;6.17;;
18322;SDS011;9287;49.456;11.064;2023-08-31T06:09:16;8.47;;;7.23;;
18322;SDS011;9287;49.456;11.064;2023-08-31T06:11:44;7.27;;;6.47;;
18322;SDS011;9287;49.456;11.064;2023-08-31T06:14:11;8.33;;;6.67;;
18322;SDS011;9287;49.456;11.064;2023-08-31T06:16:39;7.40;;;6.33;;
18322;SDS011;9287;49.456;11.064;2023-08-31T06:19:07;8.40;;;6.40;;
18322;SDS011;9287;49.456;11.064;2023-08-31T06:21:35;6.90;;;6.17;;
18322;SDS011;9287;49.456;11.064;2023-08-31T06:24:03;9.80;;;6.70;;
18322;SDS011;9287;49.456;11.064;2023-08-31T06:26:34;6.90;;;6.23;;
18322;SDS011;9287;49.456;11.064;2023-08-31T06:29:02;6.73;;;6.10;;
18322;SDS011;9287;49.456;11.064;2023-08-31T06:31:34;6.40;;;5.80;;
18322;SDS011;9287;49.456;11.064;2023-08-31T06:34:02;8.97;;;6.03;;
18322;SDS011;9287;49.456;11.064;2023-08-31T06:36:30;6.37;;;5.40;;
18322;SDS011;9287;49.456;11.064;2023-08-31T06:38:58;6.20;;;5.70;;
18322;SDS011;9287;49.456;11.064;2023-08-31T06:41:27;8.33;;;5.23;;
18322;SDS011;9287;49.456;11.064;2023-08-31T06:43:56;5.93;;;4.70;;
18322;SDS011;9287;49.456;11.064;2023-08-31T06:46:25;6.67;;;4.40;;
18322;SDS011;9287;49.456;11.064;2023-08-31T06:48:54;5.40;;;4.80;;
18322;SDS011;9287;49.456;11.064;2023-08-31T06:51:21;4.53;;;4.10;;
18322;SDS011;9287;49.456;11.064;2023-08-31T06:53:51;5.57;;;3.47;;
18322;SDS011;9287;49.456;11.064;2023-08-31T06:56:18;5.40;;;3.72;;
18322;SDS011;9287;49.456;11.064;2023-08-31T06:58:46;5.40;;;3.78;;
18322;SDS011;9287;49.456;11.064;2023-08-31T07:01:16;12.23;;;4.38;;
18322;SDS011;9287;49.456;11.064;2023-08-31T07:03:46;5.40;;;3.63;;
18322;SDS011;9287;49.456;11.064;2023-08-31T07:06:14;3.50;;;3.20;;
18322;SDS011;9287;49.456;11.064;2023-08-31T07:08:42;4.65;;;3.42;;
18322;SDS011;9287;49.456;11.064;2023-08-31T07:11:11;7.68;;;4.10;;
18322;SDS011;9287;49.456;11.064;2023-08-31T07:13:39;4.70;;;2.60;;
18322;SDS011;9287;49.456;11.064;2023-08-31T07:16:07;2.00;;;1.83;;
18322;SDS011;9287;49.456;11.064;2023-08-31T07:18:36;2.47;;;2.28;;
18322;SDS011;9287;49.456;11.064;2023-08-31T07:21:04;2.80;;;1.80;;
18322;SDS011;9287;49.456;11.064;2023-08-31T07:23:32;4.57;;;2.05;;
18322;SDS011;9287;49.456;11.064;2023-08-31T07:26:00;3.45;;;2.30;;
18322;SDS011;9287;49.456;11.064;2023-08-31T07:28:31;3.15;;;1.83;;
18322;SDS011;9287;49.456;11.064;2023-08-31T07:31:02;3.85;;;1.83;;
18322;SDS011;9287;49.456;11.064;2023-08-31T07:33:31;2.33;;;1.33;;
18322;SDS011;9287;49.456;11.064;2023-08-31T07:36:01;3.13;;;1.70;;
18322;SDS011;9287;49.456;11.064;2023-08-31T07:38:30;3.72;;;1.50;;
18322;SDS011;9287;49.456;11.064;2023-08-31T07:40:59;3.95;;;1.48;;
18322;SDS011;9287;49.456;11.064;2023-08-31T07:43:27;2.40;;;1.33;;
18322;SDS011;9287;49.456;11.064;2023-08-31T07:45:55;6.00;;;1.50;;
18322;SDS011;9287;49.456;11.064;2023-08-31T07:48:24;2.65;;;1.30;;
18322;SDS011;9287;49.456;11.064;2023-08-31T07:50:52;1.65;;;1.00;;
18322;SDS011;9287;49.456;11.064;2023-08-31T07:53:21;1.60;;;1.10;;
18322;SDS011;9287;49.456;11.064;2023-08-31T07:55:52;2.78;;;1.27;;
18322;SDS011;9287;49.456;11.064;2023-08-31T07:58:21;2.03;;;1.10;;
18322;SDS011;9287;49.456;11.064;2023-08-31T08:00:51;2.35;;;1.40;;
18322;SDS011;9287;49.456;11.064;2023-08-31T08:03:21;1.75;;;1.17;;
18322;SDS011;9287;49.456;11.064;2023-08-31T08:05:49;2.58;;;1.33;;
18322;SDS011;9287;49.456;11.064;2023-08-31T08:08:17;2.78;;;1.30;;
18322;SDS011;9287;49.456;11.064;2023-08-31T08:10:46;3.80;;;1.33;;
18322;SDS011;9287;49.456;11.064;2023-08-31T08:13:14;1.90;;;1.27;;
18322;SDS011;9287;49.456;11.064;2023-08-31T08:15:42;2.28;;;1.35;;
18322;SDS011;9287;49.456;11.064;2023-08-31T08:18:19;1.10;;;1.00;;
18322;SDS011;9287;49.456;11.064;2023-08-31T08:20:47;1.48;;;0.93;;
18322;SDS011;9287;49.456;11.064;2023-08-31T08:23:16;2.28;;;1.00;;
18322;SDS011;9287;49.456;11.064;2023-08-31T08:25:46;2.47;;;1.00;;
18322;SDS011;9287;49.456;11.064;2023-08-31T08:28:14;1.75;;;0.90;;
18322;SDS011;9287;49.456;11.064;2023-08-31T08:30:43;2.35;;;0.98;;
18322;SDS011;9287;49.456;11.064;2023-08-31T08:33:11;2.13;;;1.05;;
18322;SDS011;9287;49.456;11.064;2023-08-31T08:35:39;2.25;;;1.08;;
18322;SDS011;9287;49.456;11.064;2023-08-31T08:38:07;2.72;;;1.10;;
18322;SDS011;9287;49.456;11.064;2023-08-31T08:40:35;8.00;;;1.00;;
18322;SDS011;9287;49.456;11.064;2023-08-31T08:43:07;4.30;;;1.20;;
18322;SDS011;9287;49.456;11.064;2023-08-31T08:45:37;1.63;;;0.88;;
18322;SDS011;9287;49.456;11.064;2023-08-31T08:48:08;2.38;;;1.00;;
18322;SDS011;9287;49.456;11.064;2023-08-31T08:50:36;1.23;;;1.00;;
18322;SDS011;9287;49.456;11.064;2023-08-31T08:53:05;2.20;;;1.00;;
18322;SDS011;9287;49.456;11.064;2023-08-31T08:55:33;1.20;;;1.00;;
18322;SDS011;9287;49.456;11.064;2023-08-31T08:58:02;3.72;;;1.05;;
18322;SDS011;9287;49.456;11.064;2023-08-31T09:00:35;2.58;;;1.00;;
18322;SDS011;9287;49.456;11.064;2023-08-31T09:03:03;2.53;;;0.70;;
18322;SDS011;9287;49.456;11.064;2023-08-31T09:05:31;0.90;;;0.80;;
18322;SDS011;9287;49.456;11.064;2023-08-31T09:08:05;1.38;;;0.75;;
18322;SDS011;9287;49.456;11.064;2023-08-31T09:10:36;1.92;;;1.33;;
18322;SDS011;9287;49.456;11.064;2023-08-31T09:13:05;2.13;;;1.08;;
18322;SDS011;9287;49.456;11.064;2023-08-31T09:15:37;2.78;;;0.80;;
18322;SDS011;9287;49.456;11.064;2023-08-31T09:18:08;3.05;;;1.40;;
18322;SDS011;9287;49.456;11.064;2023-08-31T09:20:46;1.52;;;1.00;;
18322;SDS011;9287;49.456;11.064;2023-08-31T09:23:15;2.88;;;1.60;;
18322;SDS011;9287;49.456;11.064;2023-08-31T09:25:43;1.20;;;0.80;;
18322;SDS011;9287;49.456;11.064;2023-08-31T09:28:14;2.88;;;1.00;;
18322;SDS011;9287;49.456;11.064;2023-08-31T09:30:52;2.00;;;0.90;;
18322;SDS011;9287;49.456;11.064;2023-08-31T09:33:34;1.65;;;0.82;;
18322;SDS011;9287;49.456;11.064;2023-08-31T09:36:05;3.67;;;1.00;;
18322;SDS011;9287;49.456;11.064;2023-08-31T09:38:40;2.13;;;0.80;;
18322;SDS011;9287;49.456;11.064;2023-08-31T09:41:09;2.50;;;1.05;;
18322;SDS011;9287;49.456;11.064;2023-08-31T09:43:37;1.95;;;0.70;;
18322;SDS011;9287;49.456;11.064;2023-08-31T09:46:08;1.23;;;0.70;;
18322;SDS011;9287;49.456;11.064;2023-08-31T09:48:37;1.83;;;0.98;;
18322;SDS011;9287;49.456;11.064;2023-08-31T09:51:09;1.23;;;0.70;;
18322;SDS011;9287;49.456;11.064;2023-08-31T09:53:37;2.80;;;0.65;;
18322;SDS011;9287;49.456;11.064;2023-08-31T09:56:06;2.25;;;0.80;;
18322;SDS011;9287;49.456;11.064;2023-08-31T09:58:35;4.55;;;0.90;;
18322;SDS011;9287;49.456;11.064;2023-08-31T10:01:03;1.63;;;0.80;;
18322;SDS011;9287;49.456;11.064;2023-08-31T10:03:50;0.90;;;0.70;;
18322;SDS011;9287;49.456;11.064;2023-08-31T10:06:18;4.80;;;0.85;;
18322;SDS011;9287;49.456;11.064;2023-08-31T10:08:49;1.98;;;0.80;;
18322;SDS011;9287;49.456;11.064;2023-08-31T10:11:17;2.28;;;1.08;;
18322;SDS011;9287;49.456;11.064;2023-08-31T10:13:48;2.40;;;1.08;;
18322;SDS011;9287;49.456;11.064;2023-08-31T10:16:17;0.98;;;0.77;;
18322;SDS011;9287;49.456;11.064;2023-08-31T10:18:45;2.47;;;0.98;;
18322;SDS011;9287;49.456;11.064;2023-08-31T10:21:17;2.67;;;0.80;;
18322;SDS011;9287;49.456;11.064;2023-08-31T10:23:46;1.65;;;0.85;;
18322;SDS011;9287;49.456;11.064;2023-08-31T10:26:22;1.52;;;1.02;;
18322;SDS011;9287;49.456;11.064;2023-08-31T10:28:51;1.80;;;1.08;;
18322;SDS011;9287;49.456;11.064;2023-08-31T10:31:20;1.42;;;1.13;;
18322;SDS011;9287;49.456;11.064;2023-08-31T10:33:54;2.83;;;1.20;;
18322;SDS011;9287;49.456;11.064;2023-08-31T10:36:35;1.55;;;1.00;;
18322;SDS011;9287;49.456;11.064;2023-08-31T10:39:05;3.05;;;1.20;;
18322;SDS011;9287;49.456;11.064;2023-08-31T10:41:37;1.65;;;1.42;;
18322;SDS011;9287;49.456;11.064;2023-08-31T10:46:54;2.35;;;1.55;;
18322;SDS011;9287;49.456;11.064;2023-08-31T10:49:22;1.92;;;1.40;;
18322;SDS011;9287;49.456;11.064;2023-08-31T10:51:55;2.90;;;1.35;;
18322;SDS011;9287;49.456;11.064;2023-08-31T10:54:25;1.90;;;1.38;;
18322;SDS011;9287;49.456;11.064;2023-08-31T10:57:03;2.13;;;1.33;;
18322;SDS011;9287;49.456;11.064;2023-08-31T10:59:46;2.47;;;1.30;;
18322;SDS011;9287;49.456;11.064;2023-08-31T11:02:30;1.55;;;1.30;;
18322;SDS011;9287;49.456;11.064;2023-08-31T11:05:05;4.32;;;1.50;;
18322;SDS011;9287;49.456;11.064;2023-08-31T11:07:35;1.73;;;1.30;;
18322;SDS011;9287;49.456;11.064;2023-08-31T11:10:11;2.20;;;1.10;;
18322;SDS011;9287;49.456;11.064;2023-08-31T11:12:43;3.10;;;1.10;;
18322;SDS011;9287;49.456;11.064;2023-08-31T11:15:12;2.20;;;1.10;;
18322;SDS011;9287;49.456;11.064;2023-08-31T11:17:41;1.17;;;1.02;;
18322;SDS011;9287;49.456;11.064;2023-08-31T11:20:12;2.53;;;1.23;;
18322;SDS011;9287;49.456;11.064;2023-08-31T11:22:45;1.65;;;1.25;;
18322;SDS011;9287;49.456;11.064;2023-08-31T11:25:16;1.30;;;1.17;;
18322;SDS011;9287;49.456;11.064;2023-08-31T11:27:52;1.48;;;1.08;;
18322;SDS011;9287;49.456;11.064;2023-08-31T11:30:21;1.65;;;1.17;;
18322;SDS011;9287;49.456;11.064;2023-08-31T11:32:49;3.08;;;1.38;;
18322;SDS011;9287;49.456;11.064;2023-08-31T11:35:20;4.30;;;1.25;;
18322;SDS011;9287;49.456;11.064;2023-08-31T11:37:54;2.20;;;1.35;;
18322;SDS011;9287;49.456;11.064;2023-08-31T11:40:23;4.03;;;1.15;;
18322;SDS011;9287;49.456;11.064;2023-08-31T11:42:53;1.80;;;1.00;;
18322;SDS011;9287;49.456;11.064;2023-08-31T11:45:21;2.40;;;1.10;;
18322;SDS011;9287;49.456;11.064;2023-08-31T11:47:51;2.33;;;0.90;;
18322;SDS011;9287;49.456;11.064;2023-08-31T11:50:21;1.10;;;0.80;;
18322;SDS011;9287;49.456;11.064;2023-08-31T11:52:50;2.33;;;0.82;;
18322;SDS011;9287;49.456;11.064;2023-08-31T11:55:21;2.92;;;0.90;;
18322;SDS011;9287;49.456;11.064;2023-08-31T11:57:49;5.63;;;1.02;;
18322;SDS011;9287;49.456;11.064;2023-08-31T12:00:20;1.75;;;1.00;;
18322;SDS011;9287;49.456;11.064;2023-08-31T12:02:58;1.50;;;0.90;;
18322;SDS011;9287;49.456;11.064;2023-08-31T12:05:26;2.67;;;0.90;;
18322;SDS011;9287;49.456;11.064;2023-08-31T12:07:54;2.22;;;0.85;;
18322;SDS011;9287;49.456;11.064;2023-08-31T12:10:25;1.58;;;0.90;;
18322;SDS011;9287;49.456;11.064;2023-08-31T12:12:53;2.75;;;0.80;;
18322;SDS011;9287;49.456;11.064;2023-08-31T12:15:22;1.73;;;0.90;;
18322;SDS011;9287;49.456;11.064;2023-08-31T12:17:50;2.60;;;0.90;;
18322;SDS011;9287;49.456;11.064;2023-08-31T12:20:24;1.10;;;0.80;;
18322;SDS011;9287;49.456;11.064;2023-08-31T12:22:52;0.95;;;0.80;;
18322;SDS011;9287;49.456;11.064;2023-08-31T12:25:21;1.75;;;0.90;;
18322;SDS011;9287;49.456;11.064;2023-08-31T12:27:50;1.35;;;0.70;;
18322;SDS011;9287;49.456;11.064;2023-08-31T12:30:18;3.03;;;0.73;;
18322;SDS011;9287;49.456;11.064;2023-08-31T12:32:46;0.90;;;0.80;;
18322;SDS011;9287;49.456;11.064;2023-08-31T12:35:14;1.60;;;0.82;;
18322;SDS011;9287;49.456;11.064;2023-08-31T12:37:42;1.65;;;0.68;;
18322;SDS011;9287;49.456;11.064;2023-08-31T12:40:10;3.10;;;0.90;;
18322;SDS011;9287;49.456;11.064;2023-08-31T12:42:38;2.28;;;0.82;;
18322;SDS011;9287;49.456;11.064;2023-08-31T12:45:08;3.67;;;0.90;;
18322;SDS011;9287;49.456;11.064;2023-08-31T12:47:37;1.20;;;0.70;;
18322;SDS011;9287;49.456;11.064;2023-08-31T12:50:06;2.97;;;0.80;;
18322;SDS011;9287;49.456;11.064;2023-08-31T12:52:34;4.38;;;1.08;;
18322;SDS011;9287;49.456;11.064;2023-08-31T12:55:10;1.90;;;0.80;;
18322;SDS011;9287;49.456;11.064;2023-08-31T12:57:40;2.42;;;0.80;;
18322;SDS011;9287;49.456;11.064;2023-08-31T13:00:10;1.92;;;0.70;;
18322;SDS011;9287;49.456;11.064;2023-08-31T13:02:39;1.60;;;0.65;;
18322;SDS011;9287;49.456;11.064;2023-08-31T13:05:08;1.77;;;0.80;;
18322;SDS011;9287;49.456;11.064;2023-08-31T13:07:38;2.55;;;0.80;;
18322;SDS011;9287;49.456;11.064;2023-08-31T13:10:07;1.50;;;0.63;;
18322;SDS011;9287;49.456;11.064;2023-08-31T13:12:35;2.00;;;0.80;;
18322;SDS011;9287;49.456;11.064;2023-08-31T13:15:05;3.55;;;1.80;;
18322;SDS011;9287;49.456;11.064;2023-08-31T13:17:36;1.38;;;0.88;;
18322;SDS011;9287;49.456;11.064;2023-08-31T13:20:04;2.92;;;1.00;;
18322;SDS011;9287;49.456;11.064;2023-08-31T13:22:34;1.27;;;0.70;;
18322;SDS011;9287;49.456;11.064;2023-08-31T13:25:03;1.17;;;0.70;;
18322;SDS011;9287;49.456;11.064;2023-08-31T13:27:32;2.30;;;1.30;;
18322;SDS011;9287;49.456;11.064;2023-08-31T13:30:00;1.90;;;1.48;;
18322;SDS011;9287;49.456;11.064;2023-08-31T13:32:32;14.15;;;12.73;;
18322;SDS011;9287;49.456;11.064;2023-08-31T13:35:01;3.72;;;1.00;;
18322;SDS011;9287;49.456;11.064;2023-08-31T13:37:34;1.35;;;0.85;;
18322;SDS011;9287;49.456;11.064;2023-08-31T13:40:02;1.77;;;0.80;;
18322;SDS011;9287;49.456;11.064;2023-08-31T13:42:33;2.17;;;0.75;;
18322;SDS011;9287;49.456;11.064;2023-08-31T13:45:05;0.80;;;0.70;;
18322;SDS011;9287;49.456;11.064;2023-08-31T13:47:34;1.58;;;0.70;;
18322;SDS011;9287;49.456;11.064;2023-08-31T13:50:03;1.30;;;0.73;;
18322;SDS011;9287;49.456;11.064;2023-08-31T13:52:32;1.45;;;0.80;;
18322;SDS011;9287;49.456;11.064;2023-08-31T13:55:00;3.00;;;0.70;;
18322;SDS011;9287;49.456;11.064;2023-08-31T13:57:27;1.23;;;0.60;;
18322;SDS011;9287;49.456;11.064;2023-08-31T13:59:55;1.17;;;0.60;;
18322;SDS011;9287;49.456;11.064;2023-08-31T14:02:23;0.90;;;0.52;;
18322;SDS011;9287;49.456;11.064;2023-08-31T14:04:51;2.15;;;0.70;;
18322;SDS011;9287;49.456;11.064;2023-08-31T14:07:21;4.30;;;0.80;;
18322;SDS011;9287;49.456;11.064;2023-08-31T14:09:49;1.23;;;0.60;;
18322;SDS011;9287;49.456;11.064;2023-08-31T14:12:17;1.52;;;0.90;;
18322;SDS011;9287;49.456;11.064;2023-08-31T14:14:45;1.23;;;0.70;;
18322;SDS011;9287;49.456;11.064;2023-08-31T14:17:13;1.88;;;0.70;;
18322;SDS011;9287;49.456;11.064;2023-08-31T14:19:42;1.85;;;0.70;;
18322;SDS011;9287;49.456;11.064;2023-08-31T14:22:11;1.85;;;0.70;;
18322;SDS011;9287;49.456;11.064;2023-08-31T14:24:41;1.50;;;0.60;;
18322;SDS011;9287;49.456;11.064;2023-08-31T14:27:12;1.38;;;0.70;;
18322;SDS011;9287;49.456;11.064;2023-08-31T14:29:39;2.08;;;0.85;;
18322;SDS011;9287;49.456;11.064;2023-08-31T14:32:08;1.15;;;0.70;;
18322;SDS011;9287;49.456;11.064;2023-08-31T14:34:35;1.00;;;0.60;;
18322;SDS011;9287;49.456;11.064;2023-08-31T14:37:03;3.33;;;1.35;;
18322;SDS011;9287;49.456;11.064;2023-08-31T14:39:31;3.38;;;0.80;;
18322;SDS011;9287;49.456;11.064;2023-08-31T14:42:00;1.48;;;0.85;;
18322;SDS011;9287;49.456;11.064;2023-08-31T14:44:29;1.67;;;0.70;;
18322;SDS011;9287;49.456;11.064;2023-08-31T14:46:57;1.73;;;0.70;;
18322;SDS011;9287;49.456;11.064;2023-08-31T14:49:25;1.25;;;0.68;;
18322;SDS011;9287;49.456;11.064;2023-08-31T14:51:53;2.05;;;0.90;;
18322;SDS011;9287;49.456;11.064;2023-08-31T14:54:20;1.15;;;0.70;;
18322;SDS011;9287;49.456;11.064;2023-08-31T14:56:50;1.58;;;0.70;;
18322;SDS011;9287;49.456;11.064;2023-08-31T14:59:19;2.03;;;0.80;;
18322;SDS011;9287;49.456;11.064;2023-08-31T15:01:47;1.98;;;0.70;;
18322;SDS011;9287;49.456;11.064;2023-08-31T15:04:15;1.77;;;0.80;;
18322;SDS011;9287;49.456;11.064;2023-08-31T15:06:43;1.55;;;0.70;;